Latest Weather Observations for Parafield

IDS60801

Issued at 11:05 pm CDT Thursday 27 November 2014 (issued every 30 minutes, with the page automatically refreshed every 10 minutes)

About weather observations | Map of weather stations | Latest weather observations for SA | Other Formats
Station Details ID: 023013 Name: PARAFIELD AIRPORT Lat: -34.80 Lon: 138.63 Height: 9.5 m
Data from the previous 72 hours. | See also: Recent months at Parafield
Date/Time
CDT
Temp
°C
App
Temp
°C
Dew
Point
Rel
Hum
%
Delta-T
°C
Wind Press
QNH
hPa
Press
MSL
hPa
Rain
since 9 am
mm
Dir
 
Spd
km/h
Gust
km/h
Spd
kts
Gust
kts
27/11:00pm 14.5 11.5 5.8 56 4.1 S 11 13 6 7 1020.4 1020.4 0.0
27/10:30pm 15.9 12.5 6.1 52 4.7 SSE 13 19 7 10 1020.8 1020.8 0.0
27/10:00pm 17.0 13.0 6.5 50 5.2 SSE 17 20 9 11 1021.0 1021.0 0.0
27/09:30pm 17.8 14.0 6.0 46 5.8 SSE 15 19 8 10 1021.0 1021.0 0.0
27/09:00pm 18.4 14.8 6.9 47 5.7 SE 15 19 8 10 1021.0 1021.0 0.0
27/08:30pm 19.7 15.6 6.1 41 6.7 SE 17 22 9 12 1020.8 1020.8 0.0
27/08:00pm 21.8 17.2 5.7 35 8.1 ESE 19 24 10 13 1020.8 1020.8 0.0
27/07:30pm 23.4 18.8 6.7 34 8.6 SE 20 24 11 13 1020.5 1020.5 0.0
27/07:00pm 24.9 20.2 6.1 30 9.7 SE 20 26 11 14 1020.0 1020.0 0.0
27/06:30pm 25.8 21.1 5.9 28 10.2 SE 20 30 11 16 1019.8 1019.8 0.0
27/06:00pm 26.6 21.3 6.6 28 10.5 SSE 24 30 13 16 1019.4 1019.4 0.0
27/05:30pm 27.4 22.3 6.2 26 11.1 S 22 30 12 16 1019.4 1019.4 0.0
27/05:00pm 28.4 24.2 5.9 24 11.8 S 17 22 9 12 1019.5 1019.5 0.0
27/04:30pm 28.7 24.8 7.3 26 11.5 ESE 17 28 9 15 1019.5 1019.5 0.0
27/04:00pm 28.2 25.3 6.3 25 11.5 S 11 17 6 9 1019.7 1019.7 0.0
27/03:30pm 28.1 24.3 9.9 32 10.2 SSW 20 28 11 15 1019.7 1019.7 0.0
27/03:00pm 27.1 22.9 11.2 37 9.0 W 24 33 13 18 1020.1 1020.1 0.0
27/02:30pm 27.8 25.9 10.5 34 9.7 S 11 28 6 15 1020.5 1020.5 0.0
27/02:00pm 27.4 25.4 8.8 31 10.2 ESE 9 17 5 9 1021.0 1021.0 0.0
27/01:30pm 26.3 24.7 8.8 33 9.5 S 7 13 4 7 1021.4 1021.4 0.0
27/01:00pm 25.5 22.8 8.9 35 9.0 SE 13 22 7 12 1021.9 1021.8 0.0
27/12:30pm 25.6 22.5 9.0 35 9.0 S 15 24 8 13 1022.1 1022.0 0.0
27/12:00pm 24.4 22.3 9.6 39 8.0 ESE 11 20 6 11 1022.5 1022.4 0.0
27/11:30am 23.9 21.7 9.5 40 7.8 E 11 17 6 9 1022.9 1022.8 0.0
27/11:00am 23.3 20.8 9.7 42 7.4 ESE 13 22 7 12 1023.2 1023.1 0.0
27/10:30am 22.2 19.2 9.4 44 6.8 SE 15 24 8 13 1023.5 1023.4 0.0
27/10:00am 22.0 18.9 10.2 47 6.4 ESE 17 26 9 14 1023.6 1023.5 0.0
27/09:30am 21.3 17.6 10.2 49 6.0 E 20 26 11 14 1023.8 1023.7 0.0
27/09:00am 20.6 16.6 10.4 52 5.5 E 22 30 12 16 1023.9 1023.8 0.0
27/08:30am 19.1 14.9 9.9 55 4.9 E 22 32 12 17 1023.9 1023.8 0.0
27/08:00am 18.0 13.8 9.9 59 4.3 E 22 30 12 16 1023.8 1023.7 0.0
27/07:30am 17.2 14.0 9.9 62 3.8 E 17 24 9 13 1023.8 1023.7 0.0
27/07:00am 15.9 12.1 9.1 64 3.5 E 19 28 10 15 1023.4 1023.3 0.0
27/06:30am 15.2 13.7 9.1 67 3.1 NNE 7 15 4 8 1023.1 1023.0 0.0
27/06:00am 14.2 12.7 8.4 68 2.9 SSE 6 11 3 6 1022.9 1022.8 0.0
27/05:30am 14.5 12.1 8.7 68 2.9 ESE 11 22 6 12 1022.8 1022.7 0.0
27/05:00am 14.7 13.2 9.3 70 2.8 SE 7 13 4 7 1022.6 1022.5 0.0
27/04:30am 15.0 12.5 9.8 71 2.7 SE 13 20 7 11 1022.5 1022.4 0.0
27/04:00am 15.0 12.0 10.6 75 2.3 SE 17 30 9 16 1022.3 1022.2 0.0
27/03:30am 14.7 11.7 10.7 77 2.1 SE 17 26 9 14 1022.0 1021.9 0.0
27/03:00am 15.2 12.0 11.2 77 2.1 SE 19 24 10 13 1022.1 1022.0 0.0
27/02:30am 15.1 11.7 11.1 77 2.1 SE 20 26 11 14 1022.4 1022.3 0.0
27/02:00am 14.8 11.6 11.2 79 1.9 SE 19 20 10 11 1022.7 1022.6 0.0
27/01:30am 14.3 14.5 10.7 79 1.9 CALM 0 0 0 0 1023.0 1022.9 0.0
27/01:00am 14.2 13.2 10.2 77 2.1 SE 6 7 3 4 1023.3 1023.2 0.0
27/12:30am 14.2 13.5 10.2 77 2.1 SE 4 11 2 6 1023.4 1023.3 0.0
27/12:00am 15.1 14.0 10.5 74 2.4 SE 7 11 4 6 1023.5 1023.4 0.0
 
Date/Time
CDT
Temp
°C
App
Temp
°C
Dew
Point
Rel
Hum
%
Delta-T
°C
Wind Press
QNH
hPa
Press
MSL
hPa
Rain
since 9 am
mm
Dir
 
Spd
km/h
Gust
km/h
Spd
kts
Gust
kts
26/11:30pm 15.8 13.2 10.6 71 2.7 SE 15 22 8 12 1023.6 1023.5 0.0
26/11:00pm 15.7 12.3 10.5 71 2.7 SE 19 24 10 13 1023.6 1023.5 0.0
26/10:30pm 15.8 13.1 10.3 70 2.9 SSE 15 19 8 10 1023.5 1023.4 0.0
26/10:00pm 15.9 13.1 10.0 68 3.1 SSE 15 22 8 12 1023.2 1023.1 0.0
26/09:30pm 16.0 12.8 9.9 67 3.2 SE 17 28 9 15 1023.0 1022.9 0.0
26/09:00pm 16.3 11.7 9.7 65 3.4 SE 24 30 13 16 1022.7 1022.6 0.0
26/08:30pm 17.2 12.1 9.1 59 4.2 ESE 26 35 14 19 1022.5 1022.4 0.0
26/08:00pm 18.0 12.8 8.8 55 4.8 ESE 26 33 14 18 1022.3 1022.2 0.0
26/07:30pm 19.3 14.0 8.6 50 5.5 SE 26 32 14 17 1021.8 1021.7 0.0
26/07:00pm 20.5 15.7 8.8 47 6.2 SE 24 35 13 19 1021.4 1021.4 0.0
26/06:30pm 21.8 16.9 8.3 42 7.1 SE 24 33 13 18 1021.1 1021.1 0.0
26/06:00pm 23.0 18.2 8.7 40 7.6 SE 24 32 13 17 1020.6 1020.6 0.0
26/05:30pm 23.6 18.2 8.1 37 8.2 SE 26 33 14 18 1020.4 1020.4 0.0
26/05:00pm 24.2 18.8 8.2 36 8.5 SE 26 37 14 20 1020.4 1020.4 0.0
26/04:30pm 25.5 19.8 8.5 34 9.1 SE 28 32 15 17 1020.1 1020.1 0.0
26/04:00pm 24.9 21.8 10.4 40 8.0 S 17 24 9 13 1020.3 1020.3 0.0
26/03:30pm 23.7 19.3 10.4 43 7.3 SW 24 32 13 17 1020.7 1020.7 0.0
26/03:00pm 23.1 18.7 10.5 45 6.9 WSW 24 33 13 18 1021.1 1021.1 0.0
26/02:30pm 22.8 18.4 10.3 45 6.8 SW 24 35 13 19 1021.7 1021.6 0.0
26/02:00pm 22.7 17.7 9.5 43 7.1 WSW 26 33 14 18 1022.1 1022.0 0.0
26/01:30pm 22.8 18.6 9.6 43 7.1 WSW 22 33 12 18 1022.4 1022.3 0.0
26/01:00pm 21.9 17.7 9.8 46 6.5 W 22 32 12 17 1022.9 1022.8 0.0
26/12:30pm 21.5 17.8 9.4 46 6.4 W 19 28 10 15 1023.3 1023.2 0.0
26/12:00pm 20.6 16.8 9.2 48 6.0 W 19 26 10 14 1023.8 1023.7 0.0
26/11:30am 21.0 18.1 8.0 43 6.7 WSW 13 20 7 11 1024.0 1023.9 0.0
26/11:00am 19.7 17.0 7.4 45 6.3 WSW 11 15 6 8 1024.3 1024.2 0.0
26/10:30am 19.1 17.2 7.5 47 5.9 NNE 7 11 4 6 1024.3 1024.2 0.0
26/10:00am 18.4 16.6 7.8 50 5.4 SW 7 17 4 9 1024.3 1024.2 0.0
26/09:30am 17.8 15.7 8.1 53 4.9 NNE 9 15 5 8 1024.3 1024.2 0.0
26/09:00am 17.1 15.2 7.7 54 4.7 ENE 7 15 4 8 1024.2 1024.1 0.0
26/08:30am 16.2 13.2 7.7 57 4.2 SE 13 20 7 11 1023.9 1023.8 0.0
26/08:00am 15.6 12.4 8.4 62 3.6 SE 15 20 8 11 1023.6 1023.5 0.0
26/07:30am 14.8 12.5 9.0 68 2.9 SE 11 20 6 11 1023.2 1023.1 0.0
26/07:00am 12.9 12.3 8.8 76 2.1 NE 2 6 1 3 1023.0 1022.9 0.0
26/06:30am 10.6 8.8 7.1 79 1.7 E 6 9 3 5 1022.8 1022.7 0.0
26/06:00am 10.3 8.4 7.4 82 1.4 NE 7 13 4 7 1022.5 1022.4 0.0
26/05:30am 8.7 7.9 6.7 87 0.9 CALM 0 0 0 0 1022.2 1022.1 0.0
26/05:00am 9.7 8.3 7.3 85 1.1 N 4 7 2 4 1022.1 1022.0 0.0
26/04:30am 10.4 9.8 7.5 82 1.4 CALM 0 0 0 0 1022.0 1021.9 0.0
26/04:00am 11.0 10.6 8.4 84 1.3 CALM 0 0 0 0 1022.0 1021.9 0.0
26/03:30am 10.7 10.1 7.2 79 1.7 CALM 0 0 0 0 1021.9 1021.8 0.0
26/03:00am 11.0 9.2 7.1 77 1.9 SE 6 7 3 4 1022.0 1021.9 0.0
26/02:30am 11.3 9.4 7.6 78 1.8 SSE 7 9 4 5 1022.2 1022.1 0.0
26/02:00am 11.1 9.2 7.4 78 1.8 SE 7 9 4 5 1022.1 1022.0 0.0
26/01:30am 11.4 9.0 7.1 75 2.0 SE 9 13 5 7 1022.3 1022.2 0.0
26/01:00am 12.1 11.7 8.2 77 1.9 CALM 0 6 0 3 1022.5 1022.4 0.0
26/12:30am 11.6 10.0 7.9 78 1.8 SE 6 6 3 3 1022.7 1022.6 0.0
26/12:00am 11.7 10.5 8.0 78 1.8 SE 4 6 2 3 1023.0 1022.9 0.0
 
Date/Time
CDT
Temp
°C
App
Temp
°C
Dew
Point
Rel
Hum
%
Delta-T
°C
Wind Press
QNH
hPa
Press
MSL
hPa
Rain
since 9 am
mm
Dir
 
Spd
km/h
Gust
km/h
Spd
kts
Gust
kts
25/11:30pm 13.0 10.9 8.1 72 2.4 SE 9 9 5 5 1023.1 1023.0 0.0
25/11:00pm 13.1 10.9 8.0 71 2.5 SE 9 13 5 7 1023.4 1023.3 0.0
25/10:30pm 14.4 11.2 8.4 67 3.0 SSE 15 19 8 10 1023.3 1023.2 0.0
25/10:00pm 14.7 11.4 8.2 65 3.3 SE 15 19 8 10 1023.5 1023.4 0.0
25/09:30pm 15.1 11.9 8.3 64 3.4 SE 15 19 8 10 1023.1 1023.0 0.0
25/09:00pm 16.0 12.1 8.7 62 3.7 SSE 19 24 10 13 1022.8 1022.7 0.0
25/08:30pm 16.4 13.3 8.9 61 3.8 SSW 15 20 8 11 1022.7 1022.6 0.0
25/08:00pm 16.8 12.7 7.7 55 4.6 SSW 19 24 10 13 1022.4 1022.3 0.0
25/07:30pm 17.7 12.7 6.6 48 5.5 SW 22 24 12 13 1022.1 1022.0 0.0
25/07:00pm 18.6 14.0 6.4 45 6.1 SW 20 26 11 14 1021.9 1021.8 0.0
25/06:30pm 18.9 13.8 6.1 43 6.3 SW 22 30 12 16 1021.7 1021.6 0.0
25/06:00pm 20.4 15.6 5.6 38 7.3 SW 20 26 11 14 1021.4 1021.4 0.0
25/05:30pm 20.2 15.5 5.1 37 7.4 SW 19 26 10 14 1021.5 1021.5 0.0
25/05:00pm 21.3 16.0 5.2 35 8.0 WSW 22 30 12 16 1021.5 1021.5 0.0
25/04:30pm 20.7 15.7 4.7 35 7.8 SSW 20 26 11 14 1021.9 1021.8 0.0
25/04:00pm 20.9 15.1 4.5 34 8.0 SW 24 35 13 19 1022.1 1022.0 0.0
25/03:30pm 20.3 15.3 4.4 35 7.6 SW 20 32 11 17 1022.2 1022.1 0.0
25/03:00pm 20.9 15.6 4.9 35 7.8 SSW 22 30 12 16 1022.4 1022.3 0.0
25/02:30pm 21.1 16.2 5.1 35 7.8 WSW 20 26 11 14 1022.6 1022.5 0.0
25/02:00pm 19.8 14.7 4.3 36 7.4 WSW 20 30 11 16 1022.8 1022.7 0.0
25/01:30pm 19.8 14.8 4.7 37 7.3 WSW 20 32 11 17 1023.1 1023.0 0.0
25/01:00pm 20.1 15.4 6.1 40 7.0 WSW 20 28 11 15 1023.0 1022.9 0.0
25/12:30pm 19.0 15.3 6.1 43 6.4 WSW 15 19 8 10 1023.3 1023.2 0.0
25/12:00pm 18.3 15.9 7.1 48 5.6 SW 9 15 5 8 1023.4 1023.3 0.0
25/11:30am 18.4 15.2 6.9 47 5.7 WSW 13 20 7 11 1023.5 1023.4 0.0
25/11:00am 17.9 14.1 7.6 51 5.2 SW 17 22 9 12 1023.7 1023.6 0.0
25/10:30am 16.6 14.2 8.6 59 4.1 SW 11 13 6 7 1023.9 1023.8 0.0
25/10:00am 16.5 14.9 8.2 58 4.2 W 6 13 3 7 1023.8 1023.7 0.0
25/09:30am 16.0 13.9 8.2 60 3.9 NW 9 15 5 8 1023.7 1023.6 0.0
25/09:00am 15.5 14.0 9.0 65 3.3 NNW 7 9 4 5 1023.5 1023.4 0.0
25/08:30am 14.3 12.0 9.1 71 2.6 N 11 13 6 7 1023.4 1023.3 0.0
25/08:00am 13.3 11.0 9.0 75 2.2 NNW 11 13 6 7 1023.1 1023.0 0.0
25/07:30am 13.4 11.8 8.9 74 2.3 NNE 7 11 4 6 1022.7 1022.6 0.0
25/07:00am 12.0 10.4 8.8 81 1.6 NE 7 9 4 5 1022.5 1022.4 0.0
25/06:30am 10.9 9.3 8.0 82 1.4 N 6 7 3 4 1022.2 1022.1 0.0
25/06:00am 9.9 7.6 7.5 85 1.1 NE 9 9 5 5 1021.5 1021.5 0.0
25/05:30am 9.4 7.0 6.8 84 1.2 NNE 9 11 5 6 1021.2 1021.2 0.0
25/05:00am 10.2 7.9 7.3 82 1.4 N 9 9 5 5 1020.8 1020.8 0.0
25/04:30am 10.9 10.4 8.0 82 1.4 CALM 0 0 0 0 1020.6 1020.6 0.0
25/04:00am 10.9 10.4 8.0 82 1.4 CALM 0 6 0 3 1020.2 1020.2 0.0
25/03:30am 11.0 10.3 7.1 77 1.9 CALM 0 0 0 0 1020.1 1020.1 0.0
25/03:00am 10.8 10.1 6.9 77 1.8 CALM 0 0 0 0 1020.2 1020.2 0.0
25/02:30am 11.9 10.4 7.0 72 2.3 SE 4 6 2 3 1020.3 1020.3 0.0
25/02:00am 12.0 9.6 6.9 71 2.4 SE 9 11 5 6 1020.1 1020.1 0.0
25/01:30am 12.6 10.7 6.6 67 2.9 SE 6 7 3 4 1020.2 1020.2 0.0
25/01:00am 12.1 9.9 6.4 68 2.7 SSE 7 11 4 6 1020.2 1020.2 0.0
25/12:30am 12.7 9.8 6.7 67 2.9 S 11 15 6 8 1020.1 1020.1 0.0
25/12:00am 13.5 9.5 6.8 64 3.2 S 17 20 9 11 1020.1 1020.1 0.0
 
Date/Time
CDT
Temp
°C
App
Temp
°C
Dew
Point
Rel
Hum
%
Delta-T
°C
Wind Press
QNH
hPa
Press
MSL
hPa
Rain
since 9 am
mm
Dir
 
Spd
km/h
Gust
km/h
Spd
kts
Gust
kts
24/11:30pm 13.3 9.7 6.9 65 3.1 S 15 20 8 11 1019.9 1019.9 0.0

Other Formats:

Comma delimited format used in spreadsheet applications
http://www.bom.gov.au/fwo/IDS60801/IDS60801.95677.axf

JavaScript Object Notation format (JSON) in row-major order
http://www.bom.gov.au/fwo/IDS60801/IDS60801.95677.json